Time;durP1;ratioP1;P1;durP2;ratioP2;P2;SDS_P1;SDS_P2;PMS_P1;PMS_P2;Temp;Humidity;BMP_temperature;BMP_pressure;BME280_temperature;BME280_humidity;BME280_pressure;Samples;Min_cycle;Max_cycle;Signal;HPM_P1;HPM_P2
2021/04/24 00:01:33;;;;;;;8.73;5.50;;;8.90;77.60;;;;;;5049877;28;20193;-67
2021/04/24 00:03:59;;;;;;;8.40;5.67;;;8.90;78.00;;;;;;5050386;28;20545;-67
2021/04/24 00:06:26;;;;;;;8.43;5.60;;;8.80;80.10;;;;;;5049508;28;20439;-67
2021/04/24 00:08:52;;;;;;;6.17;5.60;;;8.60;81.60;;;;;;5050224;28;20440;-67
2021/04/24 00:11:18;;;;;;;10.97;6.20;;;8.60;82.00;;;;;;5049182;28;20452;-67
2021/04/24 00:13:45;;;;;;;7.83;5.23;;;8.60;81.20;;;;;;5050356;28;20945;-67
2021/04/24 00:16:11;;;;;;;7.53;5.80;;;8.60;82.00;;;;;;5049618;28;20452;-67
2021/04/24 00:18:36;;;;;;;7.47;5.70;;;8.60;85.60;;;;;;5049886;28;20458;-67
2021/04/24 00:21:04;;;;;;;8.40;6.17;;;8.50;85.90;;;;;;5049977;28;20194;-67
2021/04/24 00:23:29;;;;;;;10.97;7.07;;;8.50;86.60;;;;;;5050002;28;20177;-67
2021/04/24 00:25:55;;;;;;;9.77;6.27;;;8.30;89.50;;;;;;5044095;28;20433;-67
2021/04/24 00:28:20;;;;;;;7.07;5.73;;;8.20;90.10;;;;;;5048220;28;20251;-67
2021/04/24 00:30:46;;;;;;;10.73;7.33;;;8.20;90.70;;;;;;5049840;28;20212;-66
2021/04/24 00:33:12;;;;;;;9.77;6.93;;;8.10;92.00;;;;;;5049770;28;20176;-67
2021/04/24 00:35:38;;;;;;;11.50;6.53;;;8.10;91.50;;;;;;5050022;28;20435;-66
2021/04/24 00:38:04;;;;;;;10.17;7.03;;;8.10;91.90;;;;;;5049974;28;20288;-67
2021/04/24 00:40:29;;;;;;;9.07;5.70;;;8.10;91.70;;;;;;5049293;28;20180;-66
2021/04/24 00:42:55;;;;;;;6.90;5.30;;;8.10;93.40;;;;;;5049674;28;20428;-67
2021/04/24 00:45:23;;;;;;;13.93;6.93;;;8.00;93.60;;;;;;5049810;28;20173;-67
2021/04/24 00:47:50;;;;;;;10.03;6.87;;;8.00;92.60;;;;;;5049806;28;20658;-67
2021/04/24 00:50:19;;;;;;;10.50;6.03;;;7.90;94.00;;;;;;5048005;28;20777;-67
2021/04/24 00:52:45;;;;;;;7.73;5.33;;;7.80;94.70;;;;;;5042213;28;20978;-67
2021/04/24 00:55:11;;;;;;;11.33;6.43;;;7.90;94.10;;;;;;5049496;28;20420;-67
2021/04/24 00:57:37;;;;;;;8.57;6.10;;;7.90;94.80;;;;;;5049361;28;20205;-67
2021/04/24 01:00:06;;;;;;;8.60;6.60;;;7.90;95.10;;;;;;5049481;28;20451;-67
2021/04/24 01:02:31;;;;;;;7.80;6.23;;;7.90;94.90;;;;;;5049003;28;20470;-67
2021/04/24 01:04:57;;;;;;;9.63;6.13;;;7.90;94.60;;;;;;5049839;28;20937;-67
2021/04/24 01:07:22;;;;;;;11.93;7.40;;;7.90;94.30;;;;;;5049120;28;20181;-67
2021/04/24 01:09:48;;;;;;;7.63;6.27;;;7.90;95.30;;;;;;5049304;28;20174;-66
2021/04/24 01:12:13;;;;;;;13.10;7.20;;;7.80;95.10;;;;;;5049754;28;20185;-67
2021/04/24 01:14:39;;;;;;;8.77;6.50;;;7.80;95.90;;;;;;5049388;28;20180;-67
2021/04/24 01:17:05;;;;;;;9.73;7.27;;;7.80;96.20;;;;;;5049673;28;20181;-67
2021/04/24 01:19:30;;;;;;;14.20;7.07;;;7.80;97.40;;;;;;5049405;28;20232;-67
2021/04/24 01:22:05;;;;;;;12.30;6.63;;;7.70;97.20;;;;;;5049582;28;20520;-67
2021/04/24 01:24:31;;;;;;;11.30;6.83;;;7.70;98.00;;;;;;5035684;28;20201;-67
2021/04/24 01:26:57;;;;;;;10.30;6.20;;;7.60;99.50;;;;;;5053024;28;20490;-67
2021/04/24 01:29:23;;;;;;;9.33;6.40;;;7.50;99.90;;;;;;5052464;28;20447;-67
2021/04/24 01:31:49;;;;;;;14.37;6.60;;;7.30;99.90;;;;;;5053058;28;20605;-67
2021/04/24 01:34:15;;;;;;;10.70;5.97;;;7.30;99.90;;;;;;5052670;28;20428;-67
2021/04/24 01:36:40;;;;;;;12.77;6.30;;;7.30;99.90;;;;;;5053334;28;20177;-67
2021/04/24 01:39:06;;;;;;;9.73;6.23;;;7.30;99.90;;;;;;5052013;28;20545;-67
2021/04/24 01:41:33;;;;;;;10.23;6.80;;;7.20;99.90;;;;;;5033846;28;20208;-67
2021/04/24 01:43:58;;;;;;;11.30;6.87;;;7.20;99.90;;;;;;5052917;28;21021;-67
2021/04/24 01:46:24;;;;;;;11.97;7.67;;;7.10;99.90;;;;;;5051985;28;20555;-67
2021/04/24 01:48:50;;;;;;;10.87;7.20;;;7.10;99.90;;;;;;5051689;28;20665;-67
2021/04/24 01:51:16;;;;;;;6.87;5.87;;;7.10;99.90;;;;;;5051683;28;20635;-67
2021/04/24 01:53:42;;;;;;;9.10;7.07;;;7.10;99.90;;;;;;5052535;28;20443;-67
2021/04/24 01:56:10;;;;;;;10.47;7.00;;;7.10;99.90;;;;;;5052117;28;20604;-67
2021/04/24 01:58:36;;;;;;;10.00;6.40;;;7.00;99.90;;;;;;5052240;28;20996;-67
2021/04/24 02:01:06;;;;;;;8.53;6.37;;;6.90;99.90;;;;;;5052275;28;20514;-67
2021/04/24 02:03:32;;;;;;;8.80;6.60;;;6.90;99.90;;;;;;5051871;28;20643;-67
2021/04/24 02:05:58;;;;;;;12.70;6.77;;;6.90;99.90;;;;;;5052203;28;20430;-67
2021/04/24 02:08:30;;;;;;;10.83;7.30;;;6.80;99.90;;;;;;5052502;28;20184;-67
2021/04/24 02:10:56;;;;;;;9.47;5.93;;;6.70;99.90;;;;;;5051761;28;20734;-67
2021/04/24 02:13:26;;;;;;;10.03;6.97;;;6.70;99.90;;;;;;5051668;28;20527;-67
2021/04/24 02:15:51;;;;;;;11.50;6.63;;;6.70;99.90;;;;;;5052748;28;20174;-67
2021/04/24 02:18:17;;;;;;;12.23;7.60;;;6.60;99.90;;;;;;5051703;28;20996;-67
2021/04/24 02:20:44;;;;;;;9.47;6.70;;;6.60;99.90;;;;;;5052301;28;20615;-67
2021/04/24 02:23:14;;;;;;;10.60;6.53;;;6.50;99.90;;;;;;5051141;28;20467;-67
2021/04/24 02:25:44;;;;;;;11.83;6.77;;;6.50;99.90;;;;;;5052093;28;20420;-67
2021/04/24 02:28:10;;;;;;;11.33;8.30;;;6.50;99.90;;;;;;5051563;28;20427;-67
2021/04/24 02:30:36;;;;;;;12.83;7.13;;;6.50;99.90;;;;;;5051928;28;20490;-67
2021/04/24 02:33:03;;;;;;;9.07;7.00;;;6.50;99.90;;;;;;5051772;28;20823;-67
2021/04/24 02:35:37;;;;;;;10.13;7.13;;;6.50;99.90;;;;;;5050361;28;20438;-67
2021/04/24 02:38:04;;;;;;;12.73;7.53;;;6.40;99.90;;;;;;5051494;28;20534;-67
2021/04/24 02:40:29;;;;;;;10.47;7.37;;;6.40;99.90;;;;;;5050634;28;20961;-67
2021/04/24 02:42:55;;;;;;;9.53;7.93;;;6.30;99.90;;;;;;5051734;28;20431;-67
2021/04/24 02:45:20;;;;;;;14.10;7.77;;;6.30;99.90;;;;;;5051520;28;20181;-67
2021/04/24 02:47:46;;;;;;;9.07;6.70;;;6.20;99.90;;;;;;5051161;28;20204;-67
2021/04/24 02:50:18;;;;;;;12.20;7.03;;;6.20;99.90;;;;;;5051596;28;20181;-67
2021/04/24 02:52:44;;;;;;;11.10;7.67;;;6.20;99.90;;;;;;5051371;28;20440;-67
2021/04/24 02:55:13;;;;;;;11.33;6.80;;;6.30;99.90;;;;;;5051191;28;20436;-67
2021/04/24 02:57:38;;;;;;;9.50;6.90;;;6.20;99.90;;;;;;5051413;28;20455;-67
2021/04/24 03:00:08;;;;;;;10.37;6.77;;;6.10;99.90;;;;;;5050947;28;20431;-67
2021/04/24 03:02:34;;;;;;;11.60;6.97;;;6.10;99.90;;;;;;5051614;28;20595;-66
2021/04/24 03:05:00;;;;;;;9.80;7.30;;;6.10;99.90;;;;;;5051168;28;20432;-67
2021/04/24 03:07:26;;;;;;;11.70;7.07;;;6.10;99.90;;;;;;5050978;28;20201;-67
2021/04/24 03:09:51;;;;;;;10.93;7.10;;;6.00;99.90;;;;;;5051057;28;21030;-67
2021/04/24 03:12:17;;;;;;;12.03;8.00;;;6.10;99.90;;;;;;5050295;28;20196;-67
2021/04/24 03:14:42;;;;;;;9.07;7.37;;;6.00;99.90;;;;;;5051141;28;20177;-67
2021/04/24 03:17:09;;;;;;;11.30;7.10;;;5.90;99.90;;;;;;5048331;28;20723;-67
2021/04/24 03:19:35;;;;;;;9.23;6.80;;;5.90;99.90;;;;;;5043211;28;20275;-67
2021/04/24 03:22:01;;;;;;;14.17;6.90;;;5.80;99.90;;;;;;5050472;28;20444;-67
2021/04/24 03:24:26;;;;;;;11.03;6.77;;;5.80;99.90;;;;;;5051432;28;20188;-67
2021/04/24 03:26:52;;;;;;;16.07;9.43;;;5.70;99.90;;;;;;5051134;28;20186;-67
2021/04/24 03:29:17;;;;;;;16.00;9.07;;;5.60;99.90;;;;;;5050426;28;20245;-67
2021/04/24 03:31:43;;;;;;;12.30;8.80;;;5.60;99.90;;;;;;5050999;28;20259;-67
2021/04/24 03:34:08;;;;;;;10.03;7.10;;;5.50;99.90;;;;;;5050837;28;20652;-67
2021/04/24 03:36:34;;;;;;;10.17;7.70;;;5.60;99.90;;;;;;5050649;28;20201;-67
2021/04/24 03:38:59;;;;;;;10.60;7.90;;;5.60;99.90;;;;;;5049902;28;20232;-67
2021/04/24 03:41:25;;;;;;;8.10;6.40;;;5.70;99.90;;;;;;5050663;28;20197;-67
2021/04/24 03:43:50;;;;;;;13.70;8.83;;;5.70;99.90;;;;;;5050224;28;20229;-67
2021/04/24 03:46:16;;;;;;;12.37;8.00;;;5.70;99.90;;;;;;5050070;28;20169;-67
2021/04/24 03:48:41;;;;;;;12.23;6.67;;;5.70;99.90;;;;;;5050387;28;20182;-67
2021/04/24 03:51:07;;;;;;;10.90;8.00;;;5.70;99.90;;;;;;5050115;28;20209;-67
2021/04/24 03:53:32;;;;;;;9.60;7.47;;;5.70;99.90;;;;;;5048939;28;20671;-67
2021/04/24 03:55:58;;;;;;;13.30;7.50;;;5.70;99.90;;;;;;5049609;28;20180;-67
2021/04/24 03:58:24;;;;;;;9.77;8.40;;;5.60;99.90;;;;;;5050241;28;20209;-67
2021/04/24 04:00:49;;;;;;;10.60;6.93;;;5.60;99.90;;;;;;5049589;28;20201;-67
2021/04/24 04:03:15;;;;;;;11.03;7.00;;;5.50;99.90;;;;;;5050359;28;20185;-67
2021/04/24 04:05:44;;;;;;;10.30;8.03;;;5.40;99.90;;;;;;5049907;28;20674;-67
2021/04/24 04:08:11;;;;;;;10.67;6.90;;;5.40;99.90;;;;;;5049869;28;20225;-67
2021/04/24 04:10:40;;;;;;;12.77;7.50;;;5.40;99.90;;;;;;5042349;28;20464;-67
2021/04/24 04:13:07;;;;;;;8.33;6.87;;;5.40;99.90;;;;;;5049883;28;20439;-67
2021/04/24 04:15:32;;;;;;;10.60;7.70;;;5.40;99.90;;;;;;5050408;28;20468;-67
2021/04/24 04:18:11;;;;;;;10.73;7.37;;;5.40;99.90;;;;;;5049666;28;20518;-67
2021/04/24 04:20:40;;;;;;;9.57;7.97;;;5.40;99.90;;;;;;5049377;28;20236;-67
2021/04/24 04:23:06;;;;;;;14.33;9.50;;;5.30;99.90;;;;;;5048922;28;20803;-67
2021/04/24 04:25:32;;;;;;;13.03;8.57;;;5.20;99.90;;;;;;5048313;28;20431;-67
2021/04/24 04:27:57;;;;;;;14.00;6.70;;;5.20;99.90;;;;;;5050255;28;20584;-67
2021/04/24 04:30:24;;;;;;;12.47;7.40;;;5.20;99.90;;;;;;5037307;28;20213;-67
2021/04/24 04:32:50;;;;;;;11.23;7.40;;;5.20;99.90;;;;;;5050074;28;20192;-67
2021/04/24 04:35:16;;;;;;;10.20;7.33;;;5.20;99.90;;;;;;5049896;28;20448;-67
2021/04/24 04:37:42;;;;;;;7.83;6.63;;;5.30;99.90;;;;;;5050390;28;20509;-67
2021/04/24 04:40:10;;;;;;;10.27;6.53;;;5.30;99.90;;;;;;5032085;28;20420;-67
2021/04/24 04:42:36;;;;;;;12.83;8.40;;;5.30;99.90;;;;;;5049749;28;20674;-67
2021/04/24 04:45:03;;;;;;;14.10;7.17;;;5.40;99.90;;;;;;5050771;28;20470;-67
2021/04/24 04:47:29;;;;;;;9.03;7.10;;;5.40;99.90;;;;;;5050345;28;20440;-67
2021/04/24 04:49:55;;;;;;;10.10;7.07;;;5.50;99.90;;;;;;5049519;28;20481;-67
2021/04/24 04:52:20;;;;;;;13.73;7.23;;;5.50;99.90;;;;;;5045631;28;20217;-67
2021/04/24 04:54:46;;;;;;;12.30;8.00;;;5.70;99.90;;;;;;5050098;28;20208;-67
2021/04/24 04:57:11;;;;;;;20.20;8.70;;;5.80;99.90;;;;;;5050306;28;20216;-67
2021/04/24 04:59:37;;;;;;;8.87;7.67;;;5.70;99.90;;;;;;5053675;28;20209;-67
2021/04/24 05:02:02;;;;;;;10.13;7.60;;;5.90;99.90;;;;;;5053774;28;20694;-67
2021/04/24 05:04:28;;;;;;;9.57;7.40;;;6.00;99.90;;;;;;5053122;28;20203;-67
2021/04/24 05:06:53;;;;;;;11.17;7.13;;;6.10;99.90;;;;;;5053554;28;20231;-67
2021/04/24 05:09:19;;;;;;;11.83;7.50;;;6.20;99.90;;;;;;5053467;28;20177;-67
2021/04/24 05:11:45;;;;;;;14.20;8.00;;;6.20;99.90;;;;;;5053716;28;20212;-67
2021/04/24 05:14:11;;;;;;;15.80;7.50;;;6.30;99.90;;;;;;5053805;28;20442;-67
2021/04/24 05:16:37;;;;;;;10.80;7.93;;;6.30;99.90;;;;;;5053221;28;20435;-67
2021/04/24 05:19:03;;;;;;;8.53;7.23;;;6.50;99.90;;;;;;5035166;28;20455;-67
2021/04/24 05:21:29;;;;;;;13.10;8.60;;;6.70;99.90;;;;;;5052940;28;20215;-67
2021/04/24 05:23:55;;;;;;;9.10;7.77;;;6.80;99.90;;;;;;5053495;28;20432;-67
2021/04/24 05:26:21;;;;;;;12.90;7.73;;;7.00;99.90;;;;;;5053316;28;20189;-67
2021/04/24 05:28:46;;;;;;;20.70;8.27;;;7.10;99.90;;;;;;5053338;28;20647;-67
2021/04/24 05:31:12;;;;;;;11.90;8.03;;;7.20;99.90;;;;;;5053318;28;20455;-67
2021/04/24 05:33:37;;;;;;;13.33;9.23;;;7.40;99.90;;;;;;5053450;28;20757;-67
2021/04/24 05:36:08;;;;;;;10.67;7.67;;;7.50;99.90;;;;;;5053072;28;20173;-67
2021/04/24 05:38:33;;;;;;;11.43;7.97;;;7.70;99.90;;;;;;5052933;28;20229;-67
2021/04/24 05:40:59;;;;;;;13.20;8.00;;;7.90;99.90;;;;;;5052605;28;20475;-67
2021/04/24 05:43:25;;;;;;;12.70;8.23;;;8.10;99.90;;;;;;5052971;28;20227;-67
2021/04/24 05:45:50;;;;;;;15.40;8.40;;;8.20;99.90;;;;;;5052899;28;20209;-67
2021/04/24 05:48:16;;;;;;;16.50;8.87;;;8.50;99.90;;;;;;5053239;28;20512;-67
2021/04/24 05:50:41;;;;;;;14.40;10.23;;;8.60;99.90;;;;;;5034748;28;20206;-67
2021/04/24 05:53:08;;;;;;;13.03;9.03;;;8.70;99.90;;;;;;5053027;28;20253;-67
2021/04/24 05:55:34;;;;;;;12.00;9.60;;;8.80;99.90;;;;;;5052942;28;20180;-67
2021/04/24 05:58:00;;;;;;;17.10;9.17;;;8.90;99.90;;;;;;5022475;28;20456;-67
2021/04/24 06:00:26;;;;;;;17.13;11.40;;;9.00;99.90;;;;;;5048523;28;20170;-67
2021/04/24 06:02:51;;;;;;;18.00;11.20;;;9.30;99.90;;;;;;5051691;28;20436;-68
2021/04/24 06:05:17;;;;;;;14.93;10.23;;;9.50;99.90;;;;;;5052259;28;20168;-67
2021/04/24 06:07:44;;;;;;;18.87;12.00;;;9.70;99.90;;;;;;5051973;28;20202;-67
2021/04/24 06:10:13;;;;;;;16.60;11.17;;;9.90;99.90;;;;;;5032681;28;20435;-67
2021/04/24 06:12:40;;;;;;;12.13;9.67;;;10.10;99.90;;;;;;5051222;28;20448;-67
2021/04/24 06:15:07;;;;;;;17.23;9.80;;;10.40;99.90;;;;;;5044585;28;20439;-68
2021/04/24 06:17:33;;;;;;;11.20;9.37;;;10.60;99.90;;;;;;5051685;28;20420;-67
2021/04/24 06:19:58;;;;;;;13.10;9.10;;;10.80;99.90;;;;;;5051917;28;20434;-67
2021/04/24 06:22:24;;;;;;;16.40;10.17;;;11.00;99.90;;;;;;5051524;28;20194;-67
2021/04/24 06:24:49;;;;;;;12.13;9.30;;;11.20;99.90;;;;;;5051390;28;20181;-67
2021/04/24 06:27:15;;;;;;;12.70;7.80;;;11.40;98.40;;;;;;5043168;28;20259;-67
2021/04/24 06:29:41;;;;;;;12.83;8.63;;;11.60;96.80;;;;;;5051415;28;20177;-67
2021/04/24 06:32:07;;;;;;;11.77;8.90;;;11.80;96.20;;;;;;5051935;28;20862;-67
2021/04/24 06:34:33;;;;;;;10.47;9.07;;;11.90;94.10;;;;;;5051317;28;20192;-67
2021/04/24 06:36:58;;;;;;;9.47;8.40;;;11.80;93.10;;;;;;5051889;28;20436;-67
2021/04/24 06:39:24;;;;;;;15.73;8.57;;;11.90;93.60;;;;;;5050710;28;20296;-68
2021/04/24 06:41:49;;;;;;;10.30;8.53;;;12.10;92.70;;;;;;5051493;28;20197;-68
2021/04/24 06:44:16;;;;;;;13.97;10.53;;;12.30;92.10;;;;;;5051352;28;20169;-69
2021/04/24 06:46:42;;;;;;;11.13;8.50;;;12.40;91.40;;;;;;5051599;28;20173;-69
2021/04/24 06:49:08;;;;;;;10.83;8.90;;;12.40;91.40;;;;;;5033020;28;20515;-69
2021/04/24 06:51:33;;;;;;;10.63;9.00;;;12.40;91.10;;;;;;5033494;28;20563;-68
2021/04/24 06:53:59;;;;;;;14.03;9.77;;;12.60;90.90;;;;;;5052069;28;20197;-68
2021/04/24 06:56:24;;;;;;;13.63;9.80;;;12.80;90.50;;;;;;5051727;28;20543;-69
2021/04/24 06:58:50;;;;;;;12.53;9.73;;;12.80;90.30;;;;;;5051014;28;20194;-69
2021/04/24 07:01:15;;;;;;;14.67;10.57;;;12.50;90.70;;;;;;5051556;28;20193;-68
2021/04/24 07:03:41;;;;;;;15.23;9.80;;;12.40;90.80;;;;;;5051638;28;20178;-68
2021/04/24 07:06:06;;;;;;;13.70;9.37;;;12.40;90.00;;;;;;5051505;28;20184;-68
2021/04/24 07:08:32;;;;;;;14.23;9.27;;;12.60;89.70;;;;;;5051493;28;20213;-68
2021/04/24 07:10:58;;;;;;;10.90;9.27;;;12.90;88.10;;;;;;5049252;28;20229;-69
2021/04/24 07:13:23;;;;;;;12.20;8.70;;;12.90;88.10;;;;;;5033291;28;20263;-72
2021/04/24 07:15:49;;;;;;;11.03;8.50;;;13.10;87.20;;;;;;5024669;28;20181;-69
2021/04/24 07:18:15;;;;;;;10.10;8.83;;;13.30;85.30;;;;;;5050587;28;20201;-68
2021/04/24 07:20:40;;;;;;;11.33;9.87;;;13.80;84.30;;;;;;5032611;28;20193;-68
2021/04/24 07:23:06;;;;;;;14.33;9.63;;;14.00;83.20;;;;;;5046284;28;20662;-68
2021/04/24 07:25:32;;;;;;;12.43;8.87;;;14.10;82.40;;;;;;5048314;28;20217;-68
2021/04/24 07:27:57;;;;;;;9.70;8.70;;;14.40;80.60;;;;;;5035463;28;20460;-68
2021/04/24 07:30:23;;;;;;;9.77;8.63;;;14.70;77.70;;;;;;5050595;28;20180;-68
2021/04/24 07:32:49;;;;;;;13.00;8.57;;;14.90;76.10;;;;;;5051087;28;20272;-68
2021/04/24 07:35:15;;;;;;;13.77;9.70;;;14.90;74.50;;;;;;5033169;28;20431;-66
2021/04/24 07:37:42;;;;;;;9.67;7.53;;;15.10;74.50;;;;;;5050602;28;20188;-65
2021/04/24 07:40:08;;;;;;;9.37;7.70;;;15.20;72.80;;;;;;5032573;28;20475;-65
2021/04/24 07:42:34;;;;;;;13.03;8.70;;;15.50;73.00;;;;;;5049401;28;20494;-66
2021/04/24 07:44:59;;;;;;;13.73;8.60;;;15.40;72.10;;;;;;5045662;28;20436;-66
2021/04/24 07:47:25;;;;;;;12.30;9.10;;;15.50;71.90;;;;;;5047927;28;20178;-66
2021/04/24 07:49:52;;;;;;;11.30;8.50;;;15.80;68.10;;;;;;5043452;28;20182;-67
2021/04/24 07:52:19;;;;;;;10.07;8.33;;;15.60;66.40;;;;;;5031009;28;20893;-66
2021/04/24 07:54:45;;;;;;;12.00;8.53;;;15.30;66.00;;;;;;5042360;28;20452;-66
2021/04/24 07:57:12;;;;;;;8.20;6.90;;;15.60;67.90;;;;;;5048618;28;20435;-67
2021/04/24 07:59:38;;;;;;;12.80;9.30;;;16.10;65.60;;;;;;5048568;28;20664;-66
2021/04/24 08:02:04;;;;;;;12.80;9.70;;;16.20;63.80;;;;;;5050196;28;20473;-67
2021/04/24 08:04:30;;;;;;;10.13;8.93;;;16.20;64.00;;;;;;5049753;28;20174;-66
2021/04/24 08:06:55;;;;;;;14.57;9.83;;;16.40;63.50;;;;;;5050071;28;20336;-66
2021/04/24 08:09:21;;;;;;;13.33;8.80;;;16.70;63.90;;;;;;5049105;28;20213;-66
2021/04/24 08:11:47;;;;;;;12.47;10.00;;;17.10;62.40;;;;;;5049764;28;20204;-67
2021/04/24 08:14:12;;;;;;;17.13;12.97;;;17.20;59.60;;;;;;5050128;28;20799;-65
2021/04/24 08:16:38;;;;;;;15.47;11.50;;;17.60;60.20;;;;;;5049915;28;20655;-66
2021/04/24 08:19:03;;;;;;;12.70;10.30;;;18.00;59.30;;;;;;5032322;28;20229;-66
2021/04/24 08:21:30;;;;;;;14.47;11.53;;;18.50;57.90;;;;;;5050216;28;20484;-66
2021/04/24 08:24:01;;;;;;;11.67;9.60;;;18.30;56.40;;;;;;5032472;28;20173;-65
2021/04/24 08:26:28;;;;;;;11.70;9.70;;;18.10;57.30;;;;;;5050190;28;20424;-66
2021/04/24 08:28:54;;;;;;;10.37;9.30;;;18.00;57.20;;;;;;5050214;28;20432;-66
2021/04/24 08:31:19;;;;;;;9.53;8.57;;;18.40;57.00;;;;;;5050009;28;20470;-66
2021/04/24 08:33:45;;;;;;;12.17;9.30;;;18.30;56.30;;;;;;5053187;28;20260;-66
2021/04/24 08:36:10;;;;;;;9.23;8.30;;;18.30;56.40;;;;;;5054295;28;20177;-66
2021/04/24 08:38:36;;;;;;;12.23;9.80;;;18.60;54.20;;;;;;5054051;28;20276;-64
2021/04/24 08:41:06;;;;;;;10.93;9.80;;;18.60;55.10;;;;;;5053810;28;20292;-67
2021/04/24 08:43:35;;;;;;;10.50;9.40;;;18.80;53.70;;;;;;5051674;28;20184;-66
2021/04/24 08:46:02;;;;;;;11.73;9.03;;;18.80;53.50;;;;;;5053276;28;20436;-66
2021/04/24 08:48:28;;;;;;;13.90;9.50;;;18.90;53.00;;;;;;5046072;28;20999;-67
2021/04/24 08:50:56;;;;;;;16.57;10.70;;;19.20;52.80;;;;;;5053778;28;20499;-67
2021/04/24 08:53:22;;;;;;;10.70;9.10;;;19.50;52.30;;;;;;5052226;28;20431;-67
2021/04/24 08:55:48;;;;;;;11.70;9.97;;;19.40;52.10;;;;;;5053362;28;20426;-67
2021/04/24 08:58:15;;;;;;;13.47;9.57;;;19.20;52.10;;;;;;5048969;28;20637;-67
2021/04/24 09:00:42;;;;;;;14.00;10.50;;;19.50;51.70;;;;;;5043278;28;20823;-67
2021/04/24 09:03:12;;;;;;;11.10;9.63;;;19.90;51.30;;;;;;5050556;28;20491;-69
2021/04/24 09:05:39;;;;;;;12.50;9.63;;;20.40;49.60;;;;;;5053767;28;20423;-68
2021/04/24 09:08:06;;;;;;;11.40;9.00;;;20.80;49.00;;;;;;5046140;28;20432;-67
2021/04/24 09:10:44;;;;;;;11.33;9.50;;;20.10;46.80;;;;;;5050524;28;20510;-67
2021/04/24 09:13:20;;;;;;;11.47;9.13;;;19.50;47.10;;;;;;5053233;28;20804;-66
2021/04/24 09:15:46;;;;;;;10.53;9.30;;;19.50;46.70;;;;;;5052982;28;21005;-67
2021/04/24 09:18:12;;;;;;;10.70;9.07;;;19.80;46.30;;;;;;5052948;28;20463;-67
2021/04/24 09:21:13;;;;;;;10.77;9.67;;;20.50;46.20;;;;;;5052735;28;20490;-67
2021/04/24 09:23:39;;;;;;;14.50;9.90;;;21.50;44.10;;;;;;5004676;28;21114;-67
2021/04/24 09:26:09;;;;;;;14.13;10.23;;;22.10;42.70;;;;;;5053297;28;20430;-67
2021/04/24 09:28:37;;;;;;;10.93;9.93;;;22.80;40.60;;;;;;5035291;28;20182;-67
2021/04/24 09:31:18;;;;;;;10.67;9.43;;;23.00;40.40;;;;;;5052134;28;20504;-67
2021/04/24 09:33:45;;;;;;;11.10;9.80;;;23.70;40.00;;;;;;5053208;28;20427;-68
2021/04/24 09:36:12;;;;;;;10.20;8.50;;;24.00;38.00;;;;;;5052583;28;20523;-67
2021/04/24 09:38:39;;;;;;;11.00;9.60;;;24.60;37.30;;;;;;5052814;28;21044;-67
2021/04/24 09:41:06;;;;;;;10.07;9.07;;;24.80;35.50;;;;;;5052464;28;20900;-67
2021/04/24 09:43:57;;;;;;;11.20;10.10;;;24.90;35.90;;;;;;5052516;28;20561;-67
2021/04/24 09:46:28;;;;;;;10.87;9.77;;;25.80;35.60;;;;;;5049489;28;20436;-68
2021/04/24 09:49:21;;;;;;;11.27;9.93;;;26.00;33.20;;;;;;5052866;28;20431;-67
2021/04/24 09:52:01;;;;;;;11.00;10.00;;;25.90;34.00;;;;;;5052663;28;20483;-67
2021/04/24 09:54:33;;;;;;;13.37;9.00;;;27.30;33.20;;;;;;5053031;28;20434;-67
2021/04/24 09:57:06;;;;;;;11.47;9.90;;;28.10;32.20;;;;;;5052397;28;20424;-67
2021/04/24 09:59:49;;;;;;;13.00;9.60;;;28.10;31.40;;;;;;5052031;28;20902;-67
2021/04/24 10:02:26;;;;;;;11.67;9.27;;;28.50;30.80;;;;;;5052307;28;20455;-67
2021/04/24 10:05:12;;;;;;;11.50;9.30;;;28.40;30.00;;;;;;5049091;28;20427;-67
2021/04/24 10:07:45;;;;;;;10.70;9.60;;;27.90;29.50;;;;;;5051952;28;20424;-68
2021/04/24 10:10:31;;;;;;;14.10;10.93;;;27.70;29.30;;;;;;5052202;28;20773;-68
2021/04/24 10:12:59;;;;;;;13.03;10.07;;;28.20;29.70;;;;;;5038380;28;20432;-67
2021/04/24 10:15:48;;;;;;;9.70;8.70;;;27.50;29.60;;;;;;5052805;28;20424;-67
2021/04/24 10:18:15;;;;;;;10.23;9.43;;;27.40;29.80;;;;;;5035225;28;21001;-67
2021/04/24 10:20:44;;;;;;;10.80;9.80;;;27.10;29.90;;;;;;5051751;28;20440;-67
2021/04/24 10:23:10;;;;;;;9.80;8.80;;;27.30;30.00;;;;;;5051948;28;20775;-67
2021/04/24 10:25:37;;;;;;;12.37;11.20;;;27.90;29.50;;;;;;5051949;28;20435;-67
2021/04/24 10:28:03;;;;;;;11.80;10.70;;;28.80;29.30;;;;;;5051845;28;20432;-67
2021/04/24 10:30:28;;;;;;;10.83;9.83;;;30.10;28.80;;;;;;5051756;28;20432;-67
2021/04/24 10:32:55;;;;;;;13.63;12.17;;;30.30;28.50;;;;;;5052176;28;20424;-67
2021/04/24 10:35:22;;;;;;;11.93;10.83;;;30.70;27.70;;;;;;5051971;28;20181;-67
2021/04/24 10:37:51;;;;;;;11.27;10.37;;;31.90;27.80;;;;;;5051816;28;20442;-67
2021/04/24 10:40:18;;;;;;;12.80;11.53;;;32.10;27.30;;;;;;5051447;28;20474;-68
2021/04/24 10:42:53;;;;;;;11.03;9.90;;;30.60;26.90;;;;;;5051882;28;20494;-67
2021/04/24 10:45:31;;;;;;;11.40;10.30;;;28.70;27.40;;;;;;5051736;28;20431;-67
2021/04/24 10:47:58;;;;;;;10.50;9.50;;;29.40;27.60;;;;;;5052094;28;20932;-67
2021/04/24 10:50:38;;;;;;;10.13;9.23;;;29.40;27.90;;;;;;5051142;28;20490;-67
2021/04/24 10:53:28;;;;;;;10.77;9.67;;;30.40;27.40;;;;;;5052238;28;20428;-67
2021/04/24 10:55:56;;;;;;;10.97;9.87;;;31.50;26.70;;;;;;5050892;28;20494;-67
2021/04/24 10:58:27;;;;;;;10.37;9.17;;;29.90;26.50;;;;;;5051477;28;20476;-67
2021/04/24 11:01:04;;;;;;;12.27;11.23;;;29.20;27.60;;;;;;5050992;28;20947;-67
2021/04/24 11:03:48;;;;;;;11.60;10.63;;;29.90;27.00;;;;;;5051521;28;20428;-67
2021/04/24 11:06:15;;;;;;;12.90;11.60;;;29.90;27.00;;;;;;5033112;28;20531;-68
2021/04/24 11:08:42;;;;;;;11.43;10.33;;;30.40;26.80;;;;;;5051406;28;20442;-67
2021/04/24 11:11:13;;;;;;;12.23;11.13;;;31.00;26.90;;;;;;5051170;28;20961;-67
2021/04/24 11:13:44;;;;;;;12.60;11.30;;;32.10;26.10;;;;;;5051585;28;20929;-66
2021/04/24 11:16:14;;;;;;;13.43;12.33;;;32.60;25.90;;;;;;5051699;28;20428;-67
2021/04/24 11:18:42;;;;;;;11.70;10.60;;;33.00;25.90;;;;;;5050934;28;20872;-67
2021/04/24 11:21:09;;;;;;;13.87;12.33;;;32.10;25.50;;;;;;5051085;28;20439;-67
2021/04/24 11:23:49;;;;;;;12.30;11.30;;;31.40;26.20;;;;;;5051001;28;20515;-66
2021/04/24 11:26:21;;;;;;;13.40;12.10;;;31.30;25.90;;;;;;5050909;28;20925;-67
2021/04/24 11:29:10;;;;;;;12.67;10.80;;;31.70;25.70;;;;;;5051214;28;20443;-67
2021/04/24 11:31:49;;;;;;;13.20;11.93;;;31.30;26.00;;;;;;5050031;28;20448;-67
2021/04/24 11:34:30;;;;;;;12.23;11.10;;;30.40;26.30;;;;;;5050625;28;20450;-67
2021/04/24 11:37:15;;;;;;;12.10;10.90;;;30.30;27.30;;;;;;5050947;28;20427;-67
2021/04/24 11:40:18;;;;;;;12.63;11.40;;;30.30;26.70;;;;;;5032476;28;20901;-68
2021/04/24 11:43:03;;;;;;;13.60;12.40;;;29.70;26.90;;;;;;5045323;28;20496;-67
2021/04/24 11:45:58;;;;;;;14.47;11.03;;;30.90;26.70;;;;;;5050339;28;20431;-67
2021/04/24 11:48:48;;;;;;;14.23;11.40;;;31.60;25.80;;;;;;5050074;28;20523;-67
2021/04/24 11:51:32;;;;;;;15.77;12.77;;;32.20;25.80;;;;;;5050037;28;20469;-67
2021/04/24 11:53:58;;;;;;;13.47;12.13;;;32.40;25.30;;;;;;5050469;28;20821;-67
2021/04/24 11:56:24;;;;;;;13.50;12.27;;;32.60;25.40;;;;;;5050312;28;20664;-67
2021/04/24 11:58:50;;;;;;;12.80;11.60;;;31.50;25.70;;;;;;5050338;28;20454;-67
2021/04/24 12:01:21;;;;;;;12.57;11.37;;;32.10;25.70;;;;;;5049912;28;20604;-67
2021/04/24 12:03:46;;;;;;;12.20;11.10;;;32.10;25.60;;;;;;5050500;28;20936;-67
2021/04/24 12:06:12;;;;;;;13.40;12.30;;;31.90;25.30;;;;;;5050374;28;20428;-67
2021/04/24 12:08:38;;;;;;;13.00;11.70;;;31.30;25.80;;;;;;5049738;28;20866;-67
2021/04/24 12:11:10;;;;;;;13.50;12.40;;;31.30;25.70;;;;;;5049894;28;20201;-67
2021/04/24 12:13:36;;;;;;;14.30;12.90;;;31.80;25.50;;;;;;5032369;28;20435;-67
2021/04/24 12:16:02;;;;;;;13.70;12.40;;;31.40;25.50;;;;;;5049923;28;20432;-67
2021/04/24 12:18:30;;;;;;;13.63;12.30;;;32.40;25.30;;;;;;5046783;28;20239;-68
2021/04/24 12:20:55;;;;;;;13.20;12.00;;;33.00;24.80;;;;;;5049514;28;20268;-67
2021/04/24 12:23:21;;;;;;;15.30;12.77;;;34.20;24.40;;;;;;5049874;28;20490;-68
2021/04/24 12:25:47;;;;;;;13.33;12.03;;;35.30;24.60;;;;;;5050119;28;20252;-67
2021/04/24 12:28:14;;;;;;;12.33;11.33;;;35.20;24.10;;;;;;5050053;28;20181;-67
2021/04/24 12:30:41;;;;;;;13.90;12.53;;;35.90;23.70;;;;;;5049878;28;20448;-68
2021/04/24 12:33:11;;;;;;;13.63;12.30;;;36.10;23.60;;;;;;5049767;28;20432;-67
2021/04/24 12:35:47;;;;;;;13.47;12.20;;;36.90;23.40;;;;;;5050076;28;20797;-68
2021/04/24 12:38:22;;;;;;;14.23;12.93;;;35.50;22.70;;;;;;5049986;28;20825;-68
2021/04/24 12:40:53;;;;;;;13.57;12.37;;;34.30;23.30;;;;;;5049736;28;20447;-65
2021/04/24 12:43:45;;;;;;;13.47;12.03;;;35.60;23.30;;;;;;5050066;28;20428;-65
2021/04/24 12:46:11;;;;;;;13.17;11.97;;;36.10;23.00;;;;;;5045728;28;20431;-65